Time;durP1;ratioP1;P1;durP2;ratioP2;P2;SDS_P1;SDS_P2;PMS_P1;PMS_P2;Temp;Humidity;BMP_temperature;BMP_pressure;BME280_temperature;BME280_humidity;BME280_pressure;Samples;Min_cycle;Max_cycle;Signal;HPM_P1;HPM_P2
2024/02/27 00:00:23;;;;;;;10.70;7.20;;;4.70;99.90;;;;;;7608019;19;20049;-72
2024/02/27 00:02:56;;;;;;;12.60;7.00;;;4.60;99.90;;;;;;7609682;19;20025;-73
2024/02/27 00:05:28;;;;;;;12.32;6.80;;;4.60;99.90;;;;;;7611729;19;20046;-73
2024/02/27 00:08:01;;;;;;;13.82;7.43;;;4.60;99.90;;;;;;7615482;19;20015;-73
2024/02/27 00:10:34;;;;;;;12.63;7.63;;;4.70;99.90;;;;;;7617768;19;20010;-72
2024/02/27 00:13:06;;;;;;;14.00;7.18;;;4.70;99.90;;;;;;7615782;19;20086;-73
2024/02/27 00:15:39;;;;;;;13.50;6.75;;;4.70;99.90;;;;;;7621483;19;20102;-74
2024/02/27 00:18:16;;;;;;;10.93;6.70;;;4.80;99.90;;;;;;7617906;19;20121;-72
2024/02/27 00:20:48;;;;;;;10.32;6.18;;;4.80;99.90;;;;;;7621530;19;20355;-72
2024/02/27 00:23:21;;;;;;;10.20;6.45;;;4.80;99.90;;;;;;7607729;19;20022;-74
2024/02/27 00:25:53;;;;;;;9.85;6.35;;;4.90;99.90;;;;;;7614786;19;20018;-73
2024/02/27 00:28:25;;;;;;;11.55;6.70;;;4.80;99.90;;;;;;7616196;19;20018;-72
2024/02/27 00:30:58;;;;;;;12.73;6.70;;;4.80;99.90;;;;;;7617577;19;20062;-73
2024/02/27 00:33:30;;;;;;;11.40;6.65;;;4.60;99.90;;;;;;7602743;19;20069;-73
2024/02/27 00:36:03;;;;;;;12.05;7.32;;;4.60;99.90;;;;;;7610786;19;20018;-74
2024/02/27 00:38:36;;;;;;;12.10;7.25;;;4.60;99.90;;;;;;7606343;19;20121;-73
2024/02/27 00:41:08;;;;;;;10.05;6.45;;;4.70;99.90;;;;;;7604854;19;20018;-73
2024/02/27 00:43:41;;;;;;;14.05;8.10;;;4.70;99.90;;;;;;7612718;19;20119;-73
2024/02/27 00:46:13;;;;;;;14.35;7.53;;;4.80;99.90;;;;;;7609488;19;20014;-72
2024/02/27 00:48:45;;;;;;;14.43;8.80;;;4.80;99.90;;;;;;7612868;19;20061;-73
2024/02/27 00:51:18;;;;;;;18.70;9.23;;;4.90;99.90;;;;;;7619382;19;20010;-72
2024/02/27 00:53:50;;;;;;;17.20;8.77;;;4.80;99.90;;;;;;7618365;19;20066;-73
2024/02/27 00:56:22;;;;;;;16.33;10.32;;;4.80;99.90;;;;;;7627733;19;20776;-73
2024/02/27 00:58:54;;;;;;;15.90;9.98;;;4.70;99.90;;;;;;7631462;19;20049;-73
2024/02/27 01:01:27;;;;;;;22.88;11.75;;;4.70;99.90;;;;;;7625492;19;20014;-74
2024/02/27 01:03:59;;;;;;;19.13;11.38;;;4.70;99.90;;;;;;7623007;19;20043;-74
2024/02/27 01:06:33;;;;;;;17.73;11.27;;;4.80;99.90;;;;;;7629681;19;20018;-74
2024/02/27 01:09:05;;;;;;;;;;;4.80;99.90;;;;;;7625715;19;20026;-72
2024/02/27 01:11:38;;;;;;;17.02;9.77;;;4.80;99.90;;;;;;7632785;19;21230;-73
2024/02/27 01:14:10;;;;;;;21.08;11.30;;;4.80;99.90;;;;;;7629622;19;20493;-73
2024/02/27 01:16:43;;;;;;;23.05;12.35;;;4.80;99.90;;;;;;7625478;19;20007;-73
2024/02/27 01:19:16;;;;;;;21.33;11.90;;;4.60;99.90;;;;;;7618640;19;20010;-73
2024/02/27 01:21:48;;;;;;;22.52;12.80;;;4.60;99.90;;;;;;7627878;19;20065;-73
2024/02/27 01:24:22;;;;;;;20.25;12.93;;;4.60;99.90;;;;;;7619701;19;20010;-73
2024/02/27 01:26:54;;;;;;;20.92;12.25;;;4.70;99.90;;;;;;7623400;19;20556;-74
2024/02/27 01:29:27;;;;;;;22.73;13.02;;;4.70;99.90;;;;;;7636343;19;20093;-74
2024/02/27 01:31:59;;;;;;;21.52;12.80;;;4.80;99.90;;;;;;7625144;19;21632;-74
2024/02/27 01:34:31;;;;;;;25.25;12.70;;;4.80;99.90;;;;;;7622631;19;20020;-73
2024/02/27 01:37:04;;;;;;;21.88;12.77;;;4.80;99.90;;;;;;7622507;19;20033;-74
2024/02/27 01:39:36;;;;;;;25.17;13.60;;;4.90;99.90;;;;;;7622054;19;20015;-73
2024/02/27 01:42:13;;;;;;;26.48;15.10;;;4.80;99.90;;;;;;7616285;19;20018;-73
2024/02/27 01:44:50;;;;;;;26.30;15.00;;;4.80;99.90;;;;;;7610176;19;20026;-75
2024/02/27 01:47:24;;;;;;;26.90;14.80;;;4.70;99.90;;;;;;7616608;19;20011;-74
2024/02/27 01:49:58;;;;;;;24.60;14.00;;;4.50;99.90;;;;;;7623141;19;20057;-72
2024/02/27 01:52:30;;;;;;;26.80;14.65;;;4.50;99.90;;;;;;7619965;19;20024;-73
2024/02/27 01:55:03;;;;;;;21.80;13.65;;;4.60;99.90;;;;;;7618582;19;20019;-75
2024/02/27 01:57:36;;;;;;;24.70;14.18;;;4.70;99.90;;;;;;7615426;19;20022;-73
2024/02/27 02:00:09;;;;;;;26.70;14.68;;;4.70;99.90;;;;;;7620492;19;20429;-74
2024/02/27 02:02:45;;;;;;;22.45;13.25;;;4.80;99.90;;;;;;7618714;19;20103;-74
2024/02/27 02:05:18;;;;;;;24.67;14.23;;;4.70;99.90;;;;;;7623093;19;20014;-74
2024/02/27 02:07:50;;;;;;;32.55;15.88;;;4.70;99.90;;;;;;7623887;19;20037;-73
2024/02/27 02:10:22;;;;;;;22.58;14.32;;;4.70;99.90;;;;;;7611759;19;20060;-74
2024/02/27 02:12:55;;;;;;;26.02;14.73;;;4.60;99.90;;;;;;7616298;19;20019;-74
2024/02/27 02:15:28;;;;;;;25.55;14.02;;;4.60;99.90;;;;;;7619865;19;20525;-74
2024/02/27 02:18:00;;;;;;;25.52;14.55;;;4.70;99.90;;;;;;7611079;19;20015;-75
2024/02/27 02:20:33;;;;;;;27.75;14.48;;;4.70;99.90;;;;;;7613630;19;20014;-73
2024/02/27 02:23:05;;;;;;;25.23;14.20;;;4.80;99.90;;;;;;7615092;19;20988;-74
2024/02/27 02:25:39;;;;;;;27.88;14.73;;;4.70;99.90;;;;;;7613095;19;20061;-74
2024/02/27 02:28:14;;;;;;;25.50;14.63;;;4.60;99.90;;;;;;7614594;19;20019;-73
2024/02/27 02:30:46;;;;;;;28.55;15.02;;;4.70;99.90;;;;;;7618009;19;20064;-73
2024/02/27 02:33:19;;;;;;;24.92;13.70;;;4.60;99.90;;;;;;7599657;19;20161;-75
2024/02/27 02:35:51;;;;;;;23.33;13.93;;;4.70;99.90;;;;;;7618351;19;20022;-74
2024/02/27 02:38:23;;;;;;;24.88;14.45;;;4.80;99.90;;;;;;7610210;19;20495;-74
2024/02/27 02:40:56;;;;;;;23.83;14.07;;;4.80;99.90;;;;;;7613653;19;20014;-74
2024/02/27 02:43:28;;;;;;;26.40;14.80;;;4.90;99.90;;;;;;7607186;19;20019;-75
2024/02/27 02:46:01;;;;;;;26.48;15.35;;;4.90;99.90;;;;;;7612687;19;20114;-74
2024/02/27 02:48:35;;;;;;;23.77;14.63;;;4.90;99.90;;;;;;7600742;19;20014;-74
2024/02/27 02:51:08;;;;;;;23.48;15.25;;;4.90;99.90;;;;;;7613327;19;20026;-73
2024/02/27 02:53:41;;;;;;;26.08;13.93;;;4.80;99.90;;;;;;7606654;19;20022;-74
2024/02/27 02:56:13;;;;;;;22.42;14.32;;;4.80;99.90;;;;;;7610371;19;20026;-72
2024/02/27 02:58:45;;;;;;;23.42;13.45;;;4.90;99.90;;;;;;7597482;19;20068;-73
2024/02/27 03:01:17;;;;;;;22.67;13.63;;;4.80;99.90;;;;;;7583058;19;20011;-74
2024/02/27 03:03:50;;;;;;;29.80;14.90;;;4.90;99.90;;;;;;7601718;19;20052;-74
2024/02/27 03:06:23;;;;;;;24.08;14.43;;;4.80;99.90;;;;;;7600148;19;20031;-72
2024/02/27 03:08:55;;;;;;;28.45;14.35;;;4.70;99.90;;;;;;7600900;19;20557;-73
2024/02/27 03:11:28;;;;;;;24.83;15.15;;;4.60;99.90;;;;;;7600667;19;20034;-73
2024/02/27 03:14:00;;;;;;;24.37;15.10;;;4.60;99.90;;;;;;7607890;19;20048;-73
2024/02/27 03:16:33;;;;;;;28.55;15.75;;;4.70;99.90;;;;;;7602135;19;20021;-73
2024/02/27 03:19:05;;;;;;;27.80;15.00;;;4.70;99.90;;;;;;7596142;19;20064;-72
2024/02/27 03:21:39;;;;;;;27.85;15.02;;;4.60;99.90;;;;;;7598085;19;20029;-72
2024/02/27 03:24:11;;;;;;;29.90;16.15;;;4.70;99.90;;;;;;7601343;19;20006;-73
2024/02/27 03:26:45;;;;;;;30.63;15.73;;;4.70;99.90;;;;;;7596133;19;20451;-72
2024/02/27 03:29:18;;;;;;;28.02;16.42;;;4.70;99.90;;;;;;7601381;19;20016;-73
2024/02/27 03:31:50;;;;;;;29.80;17.13;;;4.70;99.90;;;;;;7596951;19;20139;-73
2024/02/27 03:34:24;;;;;;;26.58;16.25;;;4.70;99.90;;;;;;7601151;19;20029;-73
2024/02/27 03:36:56;;;;;;;27.98;15.73;;;4.70;99.90;;;;;;7603302;19;20618;-75
2024/02/27 03:39:29;;;;;;;25.17;15.32;;;4.70;99.90;;;;;;7595222;19;20010;-73
2024/02/27 03:42:01;;;;;;;28.27;16.90;;;4.70;99.90;;;;;;7570136;19;20026;-73
2024/02/27 03:44:34;;;;;;;29.90;16.70;;;4.70;99.90;;;;;;7577457;19;20070;-74
2024/02/27 03:47:06;;;;;;;27.98;15.88;;;4.70;99.90;;;;;;7582696;19;20019;-72
2024/02/27 03:49:38;;;;;;;26.98;15.82;;;4.70;99.90;;;;;;7575171;19;21030;-74
2024/02/27 03:52:11;;;;;;;29.55;16.00;;;4.60;99.90;;;;;;7586564;19;20613;-74
2024/02/27 03:54:43;;;;;;;31.65;16.90;;;4.60;99.90;;;;;;7572710;19;20142;-74
2024/02/27 03:57:15;;;;;;;29.10;17.05;;;4.70;99.90;;;;;;7582793;19;20586;-73
2024/02/27 03:59:48;;;;;;;24.92;14.95;;;4.60;99.90;;;;;;7566770;19;20018;-73
2024/02/27 04:02:20;;;;;;;27.83;17.27;;;4.60;99.90;;;;;;7591499;19;20362;-72
2024/02/27 04:04:52;;;;;;;30.83;17.38;;;4.70;99.90;;;;;;7598351;19;20015;-73
2024/02/27 04:07:24;;;;;;;28.65;16.50;;;4.60;99.90;;;;;;7601274;19;20111;-73
2024/02/27 04:09:57;;;;;;;30.75;17.70;;;4.60;99.90;;;;;;7583925;19;20057;-72
2024/02/27 04:12:29;;;;;;;30.45;16.50;;;4.60;99.90;;;;;;7593899;19;20052;-74
2024/02/27 04:15:01;;;;;;;30.40;17.30;;;4.60;99.90;;;;;;7604542;19;20017;-74
2024/02/27 04:17:34;;;;;;;29.60;17.88;;;4.60;99.90;;;;;;7599649;19;20019;-73
2024/02/27 04:20:06;;;;;;;29.98;18.60;;;4.50;99.90;;;;;;7602278;19;20014;-72
2024/02/27 04:22:39;;;;;;;32.15;18.42;;;4.60;99.90;;;;;;7597298;19;20015;-73
2024/02/27 04:25:12;;;;;;;29.50;17.60;;;4.50;99.90;;;;;;7588867;19;20011;-73
2024/02/27 04:27:44;;;;;;;27.70;17.27;;;4.50;99.90;;;;;;7599587;19;21236;-74
2024/02/27 04:30:16;;;;;;;31.17;17.83;;;4.60;99.90;;;;;;7588707;19;20053;-75
2024/02/27 04:32:49;;;;;;;31.58;17.40;;;4.50;99.90;;;;;;7597976;19;20033;-73
2024/02/27 04:35:21;;;;;;;29.13;17.58;;;4.50;99.90;;;;;;7609400;19;20056;-73
2024/02/27 04:37:53;;;;;;;33.35;18.63;;;4.50;99.90;;;;;;7599209;19;20017;-72
2024/02/27 04:40:27;;;;;;;32.63;18.17;;;4.40;99.90;;;;;;7601095;19;20026;-73
2024/02/27 04:42:59;;;;;;;34.42;17.63;;;4.40;99.90;;;;;;7596749;19;20021;-72
2024/02/27 04:45:31;;;;;;;28.83;17.77;;;4.30;99.90;;;;;;7600756;19;20018;-73
2024/02/27 04:48:06;;;;;;;30.48;18.23;;;4.30;99.90;;;;;;7600791;19;20414;-73
2024/02/27 04:50:39;;;;;;;32.67;18.63;;;4.40;99.90;;;;;;7602355;19;20015;-75
2024/02/27 04:53:11;;;;;;;31.23;16.88;;;4.40;99.90;;;;;;7606850;19;20048;-72
2024/02/27 04:55:44;;;;;;;28.90;18.38;;;4.50;99.90;;;;;;7589446;19;20551;-75
2024/02/27 04:58:16;;;;;;;28.65;16.88;;;4.40;99.90;;;;;;7598143;19;20079;-75
2024/02/27 05:00:48;;;;;;;30.17;17.80;;;4.40;99.90;;;;;;7592632;19;20006;-76
2024/02/27 05:03:21;;;;;;;35.10;17.95;;;4.40;99.90;;;;;;7599088;19;20021;-73
2024/02/27 05:05:54;;;;;;;33.83;18.52;;;4.40;99.90;;;;;;7585304;19;21295;-75
2024/02/27 05:08:27;;;;;;;31.38;18.50;;;4.40;99.90;;;;;;7600814;19;20022;-73
2024/02/27 05:11:00;;;;;;;33.78;19.88;;;4.40;99.90;;;;;;7582749;19;20017;-74
2024/02/27 05:13:33;;;;;;;35.67;19.23;;;4.30;99.90;;;;;;7583585;19;20010;-73
2024/02/27 05:16:08;;;;;;;36.25;19.38;;;4.30;99.90;;;;;;7596045;19;20029;-73
2024/02/27 05:18:42;;;;;;;37.03;20.75;;;4.30;99.90;;;;;;7585400;19;20318;-73
2024/02/27 05:21:20;;;;;;;38.05;20.42;;;4.30;99.90;;;;;;7600594;19;20011;-73
2024/02/27 05:23:53;;;;;;;32.33;19.73;;;4.20;99.90;;;;;;7592528;19;20715;-72
2024/02/27 05:26:25;;;;;;;37.50;20.13;;;4.20;99.90;;;;;;7591928;19;20067;-73
2024/02/27 05:28:58;;;;;;;;;;;4.20;99.90;;;;;;7598983;19;20645;-73
2024/02/27 05:31:31;;;;;;;32.25;18.35;;;4.20;99.90;;;;;;7586428;19;19918;-72
2024/02/27 05:34:04;;;;;;;30.90;18.77;;;4.20;99.90;;;;;;7591141;19;20421;-76
2024/02/27 05:36:37;;;;;;;33.15;19.75;;;4.20;99.90;;;;;;7596192;19;21204;-74
2024/02/27 05:39:09;;;;;;;38.65;22.73;;;4.20;99.90;;;;;;7592711;19;20030;-76
2024/02/27 05:41:41;;;;;;;35.83;19.48;;;4.30;99.90;;;;;;7599536;19;20020;-73
2024/02/27 05:44:14;;;;;;;34.60;19.47;;;4.30;99.90;;;;;;7592873;19;20022;-73
2024/02/27 05:46:47;;;;;;;32.35;19.45;;;4.30;99.90;;;;;;7587853;19;20014;-74
2024/02/27 05:49:19;;;;;;;33.75;19.23;;;4.30;99.90;;;;;;7595173;19;20011;-73
2024/02/27 05:51:52;;;;;;;36.88;20.77;;;4.30;99.90;;;;;;7607416;19;20014;-74
2024/02/27 05:54:24;;;;;;;32.72;19.58;;;4.40;99.90;;;;;;7591799;19;20720;-72
2024/02/27 05:56:56;;;;;;;34.45;19.58;;;4.40;99.90;;;;;;7602932;19;20051;-74
2024/02/27 05:59:29;;;;;;;35.78;19.58;;;4.40;99.90;;;;;;7600543;19;21102;-73
2024/02/27 06:02:03;;;;;;;35.53;19.58;;;4.40;99.90;;;;;;7603270;19;20022;-72
2024/02/27 06:04:35;;;;;;;;;;;4.40;99.90;;;;;;7595748;19;20026;-72
2024/02/27 06:07:08;;;;;;;36.65;20.10;;;4.30;99.90;;;;;;7591032;19;19930;-72
2024/02/27 06:09:42;;;;;;;42.88;20.02;;;4.30;99.90;;;;;;7560240;19;20552;-74
2024/02/27 06:12:14;;;;;;;40.95;20.85;;;4.20;99.90;;;;;;7583122;19;20021;-73
2024/02/27 06:14:46;;;;;;;38.53;20.10;;;4.30;99.90;;;;;;7563619;19;20018;-77
2024/02/27 06:17:19;;;;;;;42.70;21.10;;;4.20;99.90;;;;;;7573671;19;20014;-75
2024/02/27 06:19:59;;;;;;;;;;;4.20;99.90;;;;;;7569429;19;20021;-72
2024/02/27 06:22:33;;;;;;;37.63;19.63;;;4.20;99.90;;;;;;7580608;19;20584;-74
2024/02/27 06:25:06;;;;;;;43.20;22.33;;;4.20;99.90;;;;;;7588799;19;20094;-76
2024/02/27 06:27:39;;;;;;;40.45;21.85;;;4.20;99.90;;;;;;7579022;19;20014;-73
2024/02/27 06:30:12;;;;;;;41.00;21.80;;;4.10;99.90;;;;;;7578078;19;20010;-74
2024/02/27 06:32:44;;;;;;;41.40;22.70;;;4.00;99.90;;;;;;7561616;19;20065;-73
2024/02/27 06:35:17;;;;;;;40.58;21.10;;;4.00;99.90;;;;;;7581771;19;20014;-75
2024/02/27 06:37:49;;;;;;;40.97;21.73;;;4.10;99.90;;;;;;7576159;19;21985;-75
2024/02/27 06:40:22;;;;;;;38.87;22.50;;;4.20;99.90;;;;;;7606821;19;20039;-74
2024/02/27 06:42:54;;;;;;;40.55;21.00;;;4.20;99.90;;;;;;7601269;19;20083;-74
2024/02/27 06:45:26;;;;;;;40.05;20.38;;;4.20;99.90;;;;;;7603313;19;20035;-75
2024/02/27 06:47:59;;;;;;;40.80;21.95;;;4.20;99.90;;;;;;7588252;19;20485;-75
2024/02/27 06:50:31;;;;;;;41.95;21.38;;;4.30;99.90;;;;;;7608033;19;20048;-74
2024/02/27 06:53:04;;;;;;;43.40;22.35;;;4.40;99.90;;;;;;7606149;19;20018;-74
2024/02/27 06:55:37;;;;;;;43.30;23.53;;;4.40;99.90;;;;;;7601989;19;20026;-73
2024/02/27 06:58:09;;;;;;;40.58;22.98;;;4.40;99.90;;;;;;7607965;19;20020;-73
2024/02/27 07:00:42;;;;;;;43.10;22.58;;;4.50;99.90;;;;;;7605594;19;20014;-75
2024/02/27 07:03:15;;;;;;;41.15;22.92;;;4.50;99.90;;;;;;7608229;19;20015;-73
2024/02/27 07:05:48;;;;;;;38.33;21.43;;;4.50;99.90;;;;;;7605429;19;20011;-72
2024/02/27 07:08:25;;;;;;;42.35;20.98;;;4.60;99.90;;;;;;7611783;19;20613;-76
2024/02/27 07:10:57;;;;;;;41.42;22.50;;;4.60;99.90;;;;;;7607855;19;20018;-73
2024/02/27 07:13:29;;;;;;;39.10;21.23;;;4.70;99.90;;;;;;7609196;19;20018;-74
2024/02/27 07:16:02;;;;;;;38.72;21.38;;;4.70;99.90;;;;;;7612088;19;20030;-73
2024/02/27 07:18:34;;;;;;;41.47;22.42;;;4.70;99.90;;;;;;7598162;19;21352;-74
2024/02/27 07:21:06;;;;;;;39.90;21.27;;;4.80;99.90;;;;;;7613089;19;20233;-74
2024/02/27 07:23:39;;;;;;;43.92;23.23;;;4.80;99.90;;;;;;7604471;19;20773;-74
2024/02/27 07:26:11;;;;;;;43.13;22.55;;;4.80;99.90;;;;;;7606616;19;20513;-74
2024/02/27 07:28:44;;;;;;;46.03;22.17;;;4.90;99.90;;;;;;7600798;19;20010;-74
2024/02/27 07:31:18;;;;;;;45.13;23.05;;;4.90;99.90;;;;;;7609425;19;20011;-74
2024/02/27 07:33:51;;;;;;;42.38;22.75;;;5.00;99.90;;;;;;7593998;19;20063;-75
2024/02/27 07:36:23;;;;;;;46.78;22.85;;;5.20;99.90;;;;;;7612825;19;20022;-73
2024/02/27 07:38:56;;;;;;;45.20;23.35;;;5.10;99.90;;;;;;7602686;19;20022;-73
2024/02/27 07:41:28;;;;;;;43.15;22.83;;;5.10;99.90;;;;;;7603286;19;20014;-74
2024/02/27 07:44:00;;;;;;;45.42;23.48;;;5.20;99.90;;;;;;7602530;19;20948;-73
2024/02/27 07:46:34;;;;;;;48.13;24.63;;;5.10;99.90;;;;;;7602407;19;20669;-76
2024/02/27 07:49:07;;;;;;;43.03;24.40;;;5.10;99.90;;;;;;7606631;19;20022;-73
2024/02/27 07:51:39;;;;;;;43.55;23.45;;;5.10;99.90;;;;;;7602538;19;20022;-73
2024/02/27 07:54:15;;;;;;;44.00;23.10;;;5.10;99.90;;;;;;7598258;19;20746;-73
2024/02/27 07:56:49;;;;;;;49.28;23.90;;;5.20;99.90;;;;;;7594282;19;20007;-73
2024/02/27 07:59:21;;;;;;;40.83;22.73;;;5.20;99.90;;;;;;7604381;19;20638;-73
2024/02/27 08:01:53;;;;;;;45.40;23.92;;;5.10;99.90;;;;;;7575078;19;20097;-73
2024/02/27 08:04:26;;;;;;;46.20;24.38;;;5.10;99.90;;;;;;7614544;19;20022;-74
2024/02/27 08:06:58;;;;;;;45.97;25.10;;;5.20;99.90;;;;;;7602724;19;20025;-73
2024/02/27 08:09:33;;;;;;;45.80;24.45;;;5.20;99.90;;;;;;7604273;19;20026;-74
2024/02/27 08:12:06;;;;;;;46.05;23.80;;;5.30;99.90;;;;;;7604098;19;21053;-74
2024/02/27 08:14:38;;;;;;;48.30;23.98;;;5.30;99.90;;;;;;7605405;19;20025;-73
2024/02/27 08:17:12;;;;;;;54.33;25.35;;;5.40;99.90;;;;;;7603391;19;20053;-73
2024/02/27 08:19:44;;;;;;;45.33;23.98;;;5.40;99.90;;;;;;7593290;19;20018;-73
2024/02/27 08:22:17;;;;;;;50.10;24.17;;;5.50;99.90;;;;;;7606006;19;20999;-74
2024/02/27 08:24:49;;;;;;;47.28;24.67;;;5.50;99.90;;;;;;7600882;19;20480;-75
2024/02/27 08:27:22;;;;;;;46.80;23.65;;;5.50;99.90;;;;;;7608672;19;20048;-74
2024/02/27 08:29:54;;;;;;;46.22;23.92;;;5.50;99.90;;;;;;7600665;19;20066;-75
2024/02/27 08:32:26;;;;;;;45.35;23.23;;;5.50;99.90;;;;;;7606009;19;20014;-75
2024/02/27 08:34:59;;;;;;;44.08;24.25;;;5.50;99.90;;;;;;7599583;19;20052;-74
2024/02/27 08:37:32;;;;;;;47.80;24.70;;;5.60;99.90;;;;;;7606454;19;20530;-73
2024/02/27 08:40:05;;;;;;;46.38;24.23;;;5.70;99.90;;;;;;7602618;19;20030;-74
2024/02/27 08:42:37;;;;;;;47.47;23.90;;;5.70;99.90;;;;;;7599595;19;20056;-72
2024/02/27 08:45:10;;;;;;;47.15;23.92;;;5.80;99.90;;;;;;7603308;19;20053;-72
2024/02/27 08:47:43;;;;;;;43.63;23.15;;;5.90;99.90;;;;;;7600821;19;20693;-72
2024/02/27 08:50:16;;;;;;;47.92;23.50;;;5.90;99.90;;;;;;7592121;19;20026;-75
2024/02/27 08:52:48;;;;;;;44.30;23.30;;;5.90;99.90;;;;;;7603814;19;20022;-73
2024/02/27 08:55:24;;;;;;;47.28;24.70;;;5.80;99.90;;;;;;7603205;19;20018;-76
2024/02/27 08:57:58;;;;;;;44.67;23.98;;;5.90;99.90;;;;;;7604834;19;21595;-75
2024/02/27 09:00:30;;;;;;;54.07;23.60;;;5.90;99.90;;;;;;7639491;19;20020;-73
2024/02/27 09:03:03;;;;;;;45.72;23.88;;;5.90;99.90;;;;;;7633539;19;20272;-73
2024/02/27 09:05:42;;;;;;;48.40;24.65;;;6.00;99.90;;;;;;7632413;19;20018;-73
2024/02/27 09:08:15;;;;;;;47.67;23.15;;;6.00;99.90;;;;;;7634096;19;20023;-73
2024/02/27 09:10:47;;;;;;;44.05;22.70;;;6.10;99.90;;;;;;7626317;19;20102;-74
2024/02/27 09:13:20;;;;;;;44.58;22.27;;;6.10;99.90;;;;;;7628480;19;20390;-73
2024/02/27 09:15:52;;;;;;;47.35;24.55;;;6.20;99.90;;;;;;7625477;19;20522;-74
2024/02/27 09:18:25;;;;;;;50.03;24.50;;;6.10;99.90;;;;;;7620855;19;20551;-73
2024/02/27 09:20:58;;;;;;;48.08;25.00;;;6.20;99.90;;;;;;7620066;19;20011;-74
2024/02/27 09:23:30;;;;;;;42.70;23.77;;;6.10;99.90;;;;;;7620580;19;20010;-73
2024/02/27 09:26:03;;;;;;;46.17;24.33;;;6.20;99.90;;;;;;7621271;19;20021;-73
2024/02/27 09:28:35;;;;;;;47.63;24.30;;;6.10;99.90;;;;;;7620768;19;20030;-73
2024/02/27 09:31:08;;;;;;;45.10;23.23;;;6.10;99.90;;;;;;7615560;19;20035;-74
2024/02/27 09:33:50;;;;;;;46.53;23.88;;;6.10;99.90;;;;;;7618196;19;20022;-73
2024/02/27 09:36:23;;;;;;;47.55;23.73;;;6.10;99.90;;;;;;7618809;19;20015;-75
2024/02/27 09:38:56;;;;;;;45.65;23.40;;;6.00;99.90;;;;;;7611888;19;20410;-73
2024/02/27 09:42:09;;;;;;;48.87;25.10;;;6.10;99.90;;;;;;7617263;19;20108;-75
2024/02/27 09:44:52;;;;;;;44.15;23.73;;;5.90;99.90;;;;;;7608086;19;20049;-73
2024/02/27 09:47:26;;;;;;;47.40;24.08;;;5.90;99.90;;;;;;7615562;19;20010;-75
2024/02/27 09:49:59;;;;;;;43.50;23.15;;;5.90;99.90;;;;;;7610041;19;20022;-73
2024/02/27 09:52:34;;;;;;;46.08;22.65;;;6.10;99.90;;;;;;7613426;19;20014;-74
2024/02/27 09:55:08;;;;;;;43.83;23.55;;;6.00;99.90;;;;;;7609760;19;20854;-74
2024/02/27 09:57:43;;;;;;;45.28;23.90;;;6.20;99.90;;;;;;7614114;19;20485;-75
2024/02/27 10:00:16;;;;;;;47.67;24.65;;;6.10;99.90;;;;;;7611062;19;21106;-75
2024/02/27 10:02:50;;;;;;;48.60;22.48;;;6.00;99.90;;;;;;7603844;19;20056;-74
2024/02/27 10:05:23;;;;;;;45.75;22.50;;;6.00;99.90;;;;;;7608861;19;20108;-73
2024/02/27 10:07:58;;;;;;;40.30;21.90;;;6.00;99.90;;;;;;7610469;19;20046;-73
2024/02/27 10:10:32;;;;;;;42.85;22.60;;;6.10;99.90;;;;;;7617485;19;20018;-74
2024/02/27 10:13:05;;;;;;;41.88;22.90;;;6.10;99.90;;;;;;7605836;19;20010;-74
2024/02/27 10:15:37;;;;;;;42.65;23.38;;;6.20;99.90;;;;;;7613613;19;20061;-74
2024/02/27 10:18:10;;;;;;;47.35;22.95;;;6.20;99.90;;;;;;7604574;19;20094;-74
2024/02/27 10:20:43;;;;;;;42.50;23.08;;;6.20;99.90;;;;;;7608005;19;20034;-75
2024/02/27 10:23:15;;;;;;;48.13;23.73;;;6.20;99.90;;;;;;7607759;19;20003;-74
2024/02/27 10:25:50;;;;;;;42.72;23.65;;;6.20;99.90;;;;;;7607026;19;20532;-75
2024/02/27 10:28:22;;;;;;;42.80;23.10;;;6.30;99.90;;;;;;7607717;19;20010;-74
2024/02/27 10:30:56;;;;;;;41.78;22.20;;;6.40;99.90;;;;;;7615739;19;20860;-74
2024/02/27 10:33:29;;;;;;;42.65;23.02;;;6.40;99.90;;;;;;7610742;19;21071;-74
2024/02/27 10:36:03;;;;;;;42.40;23.00;;;6.50;99.90;;;;;;7608775;19;20010;-74
2024/02/27 10:38:36;;;;;;;45.00;23.13;;;6.30;99.90;;;;;;7611425;19;20066;-74
2024/02/27 10:41:08;;;;;;;43.15;22.83;;;6.40;99.90;;;;;;7604709;19;21000;-74
2024/02/27 10:43:41;;;;;;;43.45;21.60;;;6.30;99.90;;;;;;7606869;19;20633;-74
2024/02/27 10:46:14;;;;;;;41.55;21.75;;;6.40;99.90;;;;;;7617277;19;20019;-74
2024/02/27 10:48:49;;;;;;;41.90;23.17;;;6.40;99.90;;;;;;7607638;19;20011;-74
2024/02/27 10:51:23;;;;;;;42.35;22.10;;;6.50;99.90;;;;;;7612414;19;20493;-75
2024/02/27 10:53:58;;;;;;;40.00;21.13;;;6.60;99.90;;;;;;7609867;19;20056;-76
2024/02/27 10:56:32;;;;;;;39.38;21.20;;;6.70;99.90;;;;;;7611675;19;20011;-74
2024/02/27 10:59:05;;;;;;;41.92;22.00;;;6.70;99.90;;;;;;7603458;19;20626;-76
2024/02/27 11:01:40;;;;;;;39.40;21.33;;;6.80;99.90;;;;;;7600669;19;20022;-73
2024/02/27 11:04:23;;;;;;;41.25;21.77;;;6.80;99.90;;;;;;7596407;19;20017;-73
2024/02/27 11:06:59;;;;;;;39.75;21.77;;;6.80;99.90;;;;;;7605615;19;20384;-73
2024/02/27 11:09:33;;;;;;;42.65;21.58;;;6.70;99.90;;;;;;7607746;19;20115;-72
2024/02/27 11:12:08;;;;;;;40.45;21.58;;;6.90;99.90;;;;;;7605266;19;22627;-72
2024/02/27 11:14:49;;;;;;;36.72;20.73;;;7.10;99.90;;;;;;7610499;19;20010;-73
2024/02/27 11:17:22;;;;;;;35.53;21.20;;;7.20;99.90;;;;;;7603316;19;20022;-74
2024/02/27 11:19:56;;;;;;;39.83;20.20;;;7.20;99.90;;;;;;7607813;19;20018;-73
2024/02/27 11:22:30;;;;;;;34.38;18.67;;;7.30;99.90;;;;;;7604317;19;21330;-73
2024/02/27 11:25:03;;;;;;;40.45;20.20;;;7.30;99.90;;;;;;7604593;19;20014;-74
2024/02/27 11:27:38;;;;;;;38.97;19.67;;;7.40;99.90;;;;;;7609386;19;20283;-73
2024/02/27 11:30:11;;;;;;;34.40;20.05;;;7.50;99.90;;;;;;7613366;19;20098;-73
2024/02/27 11:32:44;;;;;;;;;;;7.60;99.90;;;;;;7607387;19;20023;-73
2024/02/27 11:35:17;;;;;;;34.47;20.05;;;7.70;99.90;;;;;;7603389;19;19927;-73
2024/02/27 11:37:50;;;;;;;37.47;21.88;;;7.90;99.90;;;;;;7606924;19;20034;-72
2024/02/27 11:40:45;;;;;;;36.25;19.77;;;7.90;99.90;;;;;;7593313;19;20019;-75
2024/02/27 11:43:19;;;;;;;39.33;21.50;;;8.10;99.90;;;;;;7600954;19;20022;-75
2024/02/27 11:45:54;;;;;;;;;;;8.10;99.90;;;;;;7607370;19;20029;-73
2024/02/27 11:48:45;;;;;;;38.40;21.65;;;8.20;99.90;;;;;;7603688;19;19974;-75
2024/02/27 11:51:36;;;;;;;38.08;19.85;;;8.30;99.90;;;;;;7606479;19;20047;-74
2024/02/27 11:54:11;;;;;;;37.78;21.63;;;8.40;99.90;;;;;;7603526;19;20022;-73
2024/02/27 11:56:47;;;;;;;40.30;21.85;;;8.40;99.90;;;;;;7611811;19;20022;-76
2024/02/27 11:59:20;;;;;;;38.80;21.42;;;8.60;99.90;;;;;;7606493;19;20106;-74
2024/02/27 12:02:03;;;;;;;39.42;22.48;;;8.60;99.90;;;;;;7607675;19;20032;-75
2024/02/27 12:04:36;;;;;;;39.92;22.10;;;8.80;99.90;;;;;;7581899;19;20014;-73
2024/02/27 12:07:09;;;;;;;42.85;22.50;;;9.00;99.90;;;;;;7604875;19;20088;-77
2024/02/27 12:09:41;;;;;;;37.93;21.27;;;9.40;99.90;;;;;;7605634;19;20022;-74
2024/02/27 12:12:14;;;;;;;43.85;22.00;;;9.70;99.90;;;;;;7605909;19;20028;-75
2024/02/27 12:14:46;;;;;;;45.53;23.17;;;9.60;99.90;;;;;;7601971;19;20082;-72
2024/02/27 12:17:18;;;;;;;39.15;22.38;;;9.50;99.90;;;;;;7598122;19;20741;-73
2024/02/27 12:19:51;;;;;;;37.35;21.45;;;9.30;99.90;;;;;;7609535;19;20017;-73
2024/02/27 12:22:24;;;;;;;40.63;21.25;;;9.30;99.90;;;;;;7603393;19;20018;-74
2024/02/27 12:24:56;;;;;;;39.83;22.33;;;9.30;99.90;;;;;;7598789;19;20014;-73
2024/02/27 12:27:29;;;;;;;35.10;20.95;;;9.20;99.90;;;;;;7602533;19;20014;-73
2024/02/27 12:30:10;;;;;;;37.43;20.03;;;9.10;99.90;;;;;;7604863;19;20057;-74
2024/02/27 12:32:44;;;;;;;37.00;20.83;;;8.90;99.90;;;;;;7599463;19;20354;-75
2024/02/27 12:35:17;;;;;;;34.90;19.73;;;8.80;99.90;;;;;;7578197;19;20654;-75
2024/02/27 12:37:50;;;;;;;41.42;21.92;;;8.70;99.90;;;;;;7607725;19;20021;-74
2024/02/27 12:40:23;;;;;;;34.77;20.83;;;8.40;99.90;;;;;;7592168;19;20022;-74
2024/02/27 12:42:56;;;;;;;36.70;21.40;;;8.40;99.90;;;;;;7606072;19;20287;-75
2024/02/27 12:45:30;;;;;;;37.95;21.00;;;8.40;99.90;;;;;;7588206;19;21871;-74
2024/02/27 12:48:03;;;;;;;37.17;21.05;;;8.40;99.90;;;;;;7603865;19;20011;-74
2024/02/27 12:50:36;;;;;;;37.10;19.73;;;8.40;99.90;;;;;;7605773;19;20532;-74
2024/02/27 12:53:09;;;;;;;37.22;20.27;;;8.40;99.90;;;;;;7609668;19;20029;-75
2024/02/27 12:55:45;;;;;;;38.53;21.30;;;8.40;99.90;;;;;;7614282;19;21072;-74
2024/02/27 12:58:27;;;;;;;38.40;20.33;;;8.40;99.90;;;;;;7607253;19;20552;-75
2024/02/27 13:00:59;;;;;;;38.97;20.40;;;8.40;99.90;;;;;;7608681;19;21186;-74
2024/02/27 13:03:35;;;;;;;37.15;20.65;;;8.40;99.90;;;;;;7606389;19;20019;-74
2024/02/27 13:06:07;;;;;;;39.03;21.08;;;8.30;99.90;;;;;;7612989;19;20108;-74
2024/02/27 13:08:40;;;;;;;38.40;21.40;;;8.40;99.90;;;;;;7604781;19;20022;-74
2024/02/27 13:11:13;;;;;;;33.87;19.60;;;8.30;99.90;;;;;;7611760;19;20827;-74